sensor_id;sensor_type;location;lat;lon;timestamp;pressure;altitude;pressure_sealevel;temperature;humidity
50933;BME280;36921;49.006;9.292;2023-10-08T00:01:03;99652.19;;;12.03;100.00
50933;BME280;36921;49.006;9.292;2023-10-08T00:03:31;99645.84;;;11.96;100.00
50933;BME280;36921;49.006;9.292;2023-10-08T00:05:58;99651.84;;;11.91;100.00
50933;BME280;36921;49.006;9.292;2023-10-08T00:08:31;99643.53;;;11.93;100.00
50933;BME280;36921;49.006;9.292;2023-10-08T00:10:56;99650.31;;;12.03;100.00
50933;BME280;36921;49.006;9.292;2023-10-08T00:13:22;99631.66;;;11.94;100.00
50933;BME280;36921;49.006;9.292;2023-10-08T00:15:47;99629.13;;;11.92;100.00
50933;BME280;36921;49.006;9.292;2023-10-08T00:18:20;99630.72;;;11.87;100.00
50933;BME280;36921;49.006;9.292;2023-10-08T00:20:45;99631.59;;;11.87;100.00
50933;BME280;36921;49.006;9.292;2023-10-08T00:23:34;99619.69;;;11.88;100.00
50933;BME280;36921;49.006;9.292;2023-10-08T00:26:00;99633.91;;;11.90;100.00
50933;BME280;36921;49.006;9.292;2023-10-08T00:28:31;99628.09;;;11.78;100.00
50933;BME280;36921;49.006;9.292;2023-10-08T00:30:57;99624.00;;;11.68;100.00
50933;BME280;36921;49.006;9.292;2023-10-08T00:33:23;99633.84;;;11.69;100.00
50933;BME280;36921;49.006;9.292;2023-10-08T00:35:49;99632.16;;;11.68;100.00
50933;BME280;36921;49.006;9.292;2023-10-08T00:38:15;99626.72;;;11.68;100.00
50933;BME280;36921;49.006;9.292;2023-10-08T00:40:41;99620.75;;;11.57;100.00
50933;BME280;36921;49.006;9.292;2023-10-08T00:43:28;99630.00;;;11.63;100.00
50933;BME280;36921;49.006;9.292;2023-10-08T00:45:54;99609.28;;;11.55;100.00
50933;BME280;36921;49.006;9.292;2023-10-08T00:48:19;99612.44;;;11.59;100.00
50933;BME280;36921;49.006;9.292;2023-10-08T00:50:47;99613.16;;;11.68;100.00
50933;BME280;36921;49.006;9.292;2023-10-08T00:53:12;99623.00;;;11.69;100.00
50933;BME280;36921;49.006;9.292;2023-10-08T00:55:48;99608.53;;;11.61;100.00
50933;BME280;36921;49.006;9.292;2023-10-08T00:58:19;99613.66;;;11.56;100.00
50933;BME280;36921;49.006;9.292;2023-10-08T01:00:51;99625.16;;;11.58;100.00
50933;BME280;36921;49.006;9.292;2023-10-08T01:03:24;99616.75;;;11.53;100.00
50933;BME280;36921;49.006;9.292;2023-10-08T01:05:52;99604.44;;;11.51;100.00
50933;BME280;36921;49.006;9.292;2023-10-08T01:08:17;99606.88;;;11.46;100.00
50933;BME280;36921;49.006;9.292;2023-10-08T01:10:48;99609.75;;;11.44;100.00
50933;BME280;36921;49.006;9.292;2023-10-08T01:13:14;99600.78;;;11.44;100.00
50933;BME280;36921;49.006;9.292;2023-10-08T01:15:45;99612.56;;;11.51;100.00
50933;BME280;36921;49.006;9.292;2023-10-08T01:18:12;99614.53;;;11.42;100.00
50933;BME280;36921;49.006;9.292;2023-10-08T01:20:43;99612.47;;;11.44;100.00
50933;BME280;36921;49.006;9.292;2023-10-08T01:23:17;99606.69;;;11.32;100.00
50933;BME280;36921;49.006;9.292;2023-10-08T01:25:46;99612.47;;;11.44;100.00
50933;BME280;36921;49.006;9.292;2023-10-08T01:28:38;99610.13;;;11.41;100.00
50933;BME280;36921;49.006;9.292;2023-10-08T01:31:04;99605.88;;;11.32;100.00
50933;BME280;36921;49.006;9.292;2023-10-08T01:33:30;99619.88;;;11.35;100.00
50933;BME280;36921;49.006;9.292;2023-10-08T01:35:57;99623.50;;;11.28;100.00
50933;BME280;36921;49.006;9.292;2023-10-08T01:38:29;99625.59;;;11.11;100.00
50933;BME280;36921;49.006;9.292;2023-10-08T01:40:54;99629.78;;;11.13;100.00
50933;BME280;36921;49.006;9.292;2023-10-08T01:43:21;99629.13;;;10.96;100.00
50933;BME280;36921;49.006;9.292;2023-10-08T01:45:47;99623.50;;;10.83;100.00
50933;BME280;36921;49.006;9.292;2023-10-08T01:48:16;99624.34;;;10.84;100.00
50933;BME280;36921;49.006;9.292;2023-10-08T01:50:48;99632.56;;;10.90;100.00
50933;BME280;36921;49.006;9.292;2023-10-08T01:53:14;99638.16;;;10.89;100.00
50933;BME280;36921;49.006;9.292;2023-10-08T01:55:41;99633.66;;;10.81;100.00
50933;BME280;36921;49.006;9.292;2023-10-08T01:58:17;99637.03;;;10.83;100.00
50933;BME280;36921;49.006;9.292;2023-10-08T02:00:47;99637.41;;;10.80;100.00
50933;BME280;36921;49.006;9.292;2023-10-08T02:03:13;99648.31;;;10.72;100.00
50933;BME280;36921;49.006;9.292;2023-10-08T02:05:44;99650.53;;;10.68;100.00
50933;BME280;36921;49.006;9.292;2023-10-08T02:08:11;99651.44;;;10.61;100.00
50933;BME280;36921;49.006;9.292;2023-10-08T02:10:42;99636.50;;;10.50;100.00
50933;BME280;36921;49.006;9.292;2023-10-08T02:13:09;99634.97;;;10.47;100.00
50933;BME280;36921;49.006;9.292;2023-10-08T02:15:43;99637.31;;;10.50;100.00
50933;BME280;36921;49.006;9.292;2023-10-08T02:18:08;99630.78;;;10.45;100.00
50933;BME280;36921;49.006;9.292;2023-10-08T02:20:34;99635.84;;;10.48;100.00
50933;BME280;36921;49.006;9.292;2023-10-08T02:22:59;99635.59;;;10.35;100.00
50933;BME280;36921;49.006;9.292;2023-10-08T02:25:25;99645.22;;;10.37;100.00
50933;BME280;36921;49.006;9.292;2023-10-08T02:27:50;99647.16;;;10.28;100.00
50933;BME280;36921;49.006;9.292;2023-10-08T02:30:16;99643.81;;;10.18;100.00
50933;BME280;36921;49.006;9.292;2023-10-08T02:32:43;99640.75;;;10.21;100.00
50933;BME280;36921;49.006;9.292;2023-10-08T02:35:11;99647.47;;;10.25;100.00
50933;BME280;36921;49.006;9.292;2023-10-08T02:37:38;99627.78;;;10.17;100.00
50933;BME280;36921;49.006;9.292;2023-10-08T02:40:07;99638.69;;;10.23;100.00
50933;BME280;36921;49.006;9.292;2023-10-08T02:42:43;99625.63;;;10.12;100.00
50933;BME280;36921;49.006;9.292;2023-10-08T02:45:11;99635.69;;;10.18;100.00
50933;BME280;36921;49.006;9.292;2023-10-08T02:47:40;99634.41;;;10.14;100.00
50933;BME280;36921;49.006;9.292;2023-10-08T02:50:07;99628.31;;;10.12;100.00
50933;BME280;36921;49.006;9.292;2023-10-08T02:52:33;99634.72;;;10.11;100.00
50933;BME280;36921;49.006;9.292;2023-10-08T02:54:59;99632.09;;;10.03;100.00
50933;BME280;36921;49.006;9.292;2023-10-08T02:57:25;99621.94;;;10.05;100.00
50933;BME280;36921;49.006;9.292;2023-10-08T02:59:54;99645.75;;;10.09;100.00
50933;BME280;36921;49.006;9.292;2023-10-08T03:02:19;99627.03;;;10.00;100.00
50933;BME280;36921;49.006;9.292;2023-10-08T03:04:47;99634.72;;;10.11;100.00
50933;BME280;36921;49.006;9.292;2023-10-08T03:07:15;99632.81;;;9.97;100.00
50933;BME280;36921;49.006;9.292;2023-10-08T03:09:48;99632.66;;;9.98;100.00
50933;BME280;36921;49.006;9.292;2023-10-08T03:12:16;99638.59;;;9.94;100.00
50933;BME280;36921;49.006;9.292;2023-10-08T03:14:42;99642.25;;;10.01;100.00
50933;BME280;36921;49.006;9.292;2023-10-08T03:17:15;99638.75;;;9.92;100.00
50933;BME280;36921;49.006;9.292;2023-10-08T03:19:45;99638.44;;;9.87;100.00
50933;BME280;36921;49.006;9.292;2023-10-08T03:22:11;99647.88;;;9.91;100.00
50933;BME280;36921;49.006;9.292;2023-10-08T03:24:37;99648.00;;;9.98;100.00
50933;BME280;36921;49.006;9.292;2023-10-08T03:27:04;99653.78;;;9.95;100.00
50933;BME280;36921;49.006;9.292;2023-10-08T03:29:36;99636.63;;;9.79;100.00
50933;BME280;36921;49.006;9.292;2023-10-08T03:32:09;99656.88;;;9.83;100.00
50933;BME280;36921;49.006;9.292;2023-10-08T03:34:40;99657.09;;;9.74;100.00
50933;BME280;36921;49.006;9.292;2023-10-08T03:37:09;99654.41;;;9.74;100.00
50933;BME280;36921;49.006;9.292;2023-10-08T03:39:45;99661.53;;;9.66;100.00
50933;BME280;36921;49.006;9.292;2023-10-08T03:42:21;99656.34;;;9.57;100.00
50933;BME280;36921;49.006;9.292;2023-10-08T03:44:48;99667.47;;;9.62;100.00
50933;BME280;36921;49.006;9.292;2023-10-08T03:47:20;99654.13;;;9.60;100.00
50933;BME280;36921;49.006;9.292;2023-10-08T03:49:48;99658.81;;;9.66;100.00
50933;BME280;36921;49.006;9.292;2023-10-08T03:52:19;99646.69;;;9.62;100.00
50933;BME280;36921;49.006;9.292;2023-10-08T03:54:48;99634.19;;;9.61;100.00
50933;BME280;36921;49.006;9.292;2023-10-08T03:57:20;99642.22;;;9.78;100.00
50933;BME280;36921;49.006;9.292;2023-10-08T03:59:54;99636.88;;;9.70;100.00
50933;BME280;36921;49.006;9.292;2023-10-08T04:02:24;99625.75;;;9.64;100.00
50933;BME280;36921;49.006;9.292;2023-10-08T04:05:06;99621.91;;;9.59;100.00
50933;BME280;36921;49.006;9.292;2023-10-08T04:07:44;99617.69;;;9.56;100.00
50933;BME280;36921;49.006;9.292;2023-10-08T04:10:26;99618.03;;;9.53;100.00
50933;BME280;36921;49.006;9.292;2023-10-08T04:13:14;99622.44;;;9.54;100.00
50933;BME280;36921;49.006;9.292;2023-10-08T04:15:41;99609.28;;;9.51;100.00
50933;BME280;36921;49.006;9.292;2023-10-08T04:18:11;99615.63;;;9.58;100.00
50933;BME280;36921;49.006;9.292;2023-10-08T04:20:38;99603.88;;;9.43;100.00
50933;BME280;36921;49.006;9.292;2023-10-08T04:23:12;99624.81;;;9.49;100.00
50933;BME280;36921;49.006;9.292;2023-10-08T04:25:46;99621.44;;;9.47;100.00
50933;BME280;36921;49.006;9.292;2023-10-08T04:28:12;99621.97;;;9.42;100.00
50933;BME280;36921;49.006;9.292;2023-10-08T04:30:39;99618.09;;;9.37;100.00
50933;BME280;36921;49.006;9.292;2023-10-08T04:33:07;99629.94;;;9.36;100.00
50933;BME280;36921;49.006;9.292;2023-10-08T04:35:45;99632.81;;;9.34;100.00
50933;BME280;36921;49.006;9.292;2023-10-08T04:38:17;99627.25;;;9.36;100.00
50933;BME280;36921;49.006;9.292;2023-10-08T04:40:44;99618.63;;;9.32;100.00
50933;BME280;36921;49.006;9.292;2023-10-08T04:43:24;99618.97;;;9.29;100.00
50933;BME280;36921;49.006;9.292;2023-10-08T04:45:56;99624.72;;;9.26;100.00
50933;BME280;36921;49.006;9.292;2023-10-08T04:48:29;99621.72;;;9.21;100.00
50933;BME280;36921;49.006;9.292;2023-10-08T04:50:58;99613.81;;;9.11;100.00
50933;BME280;36921;49.006;9.292;2023-10-08T04:53:27;99626.28;;;9.20;100.00
50933;BME280;36921;49.006;9.292;2023-10-08T04:55:58;99620.03;;;9.20;100.00
50933;BME280;36921;49.006;9.292;2023-10-08T04:58:27;99626.44;;;9.19;100.00
50933;BME280;36921;49.006;9.292;2023-10-08T05:00:59;99640.25;;;9.24;100.00
50933;BME280;36921;49.006;9.292;2023-10-08T05:03:43;99623.25;;;9.15;100.00
50933;BME280;36921;49.006;9.292;2023-10-08T05:06:29;99632.53;;;9.13;100.00
50933;BME280;36921;49.006;9.292;2023-10-08T05:09:11;99656.81;;;9.21;100.00
50933;BME280;36921;49.006;9.292;2023-10-08T05:11:47;99662.41;;;9.11;100.00
50933;BME280;36921;49.006;9.292;2023-10-08T05:14:16;99660.88;;;9.09;100.00
50933;BME280;36921;49.006;9.292;2023-10-08T05:16:56;99656.53;;;8.99;100.00
50933;BME280;36921;49.006;9.292;2023-10-08T05:19:48;99653.81;;;9.08;100.00
50933;BME280;36921;49.006;9.292;2023-10-08T05:22:26;99658.03;;;9.10;100.00
50933;BME280;36921;49.006;9.292;2023-10-08T05:24:55;99652.47;;;9.12;100.00
50933;BME280;36921;49.006;9.292;2023-10-08T05:27:41;99655.50;;;9.09;100.00
50933;BME280;36921;49.006;9.292;2023-10-08T05:30:29;99659.56;;;9.05;100.00
50933;BME280;36921;49.006;9.292;2023-10-08T05:33:08;99651.66;;;8.95;100.00
50933;BME280;36921;49.006;9.292;2023-10-08T05:35:51;99667.34;;;8.99;100.00
50933;BME280;36921;49.006;9.292;2023-10-08T05:38:22;99651.66;;;8.87;100.00
50933;BME280;36921;49.006;9.292;2023-10-08T05:40:50;99666.31;;;9.00;100.00
50933;BME280;36921;49.006;9.292;2023-10-08T05:43:26;99668.50;;;9.05;100.00
50933;BME280;36921;49.006;9.292;2023-10-08T05:46:05;99656.88;;;9.05;100.00
50933;BME280;36921;49.006;9.292;2023-10-08T05:48:50;99663.44;;;9.10;100.00
50933;BME280;36921;49.006;9.292;2023-10-08T05:51:35;99661.19;;;9.22;100.00
50933;BME280;36921;49.006;9.292;2023-10-08T05:54:20;99653.41;;;9.35;100.00
50933;BME280;36921;49.006;9.292;2023-10-08T05:59:43;99660.56;;;9.59;100.00
50933;BME280;36921;49.006;9.292;2023-10-08T06:02:21;99638.13;;;9.59;100.00
50933;BME280;36921;49.006;9.292;2023-10-08T06:05:01;99646.47;;;9.72;100.00
50933;BME280;36921;49.006;9.292;2023-10-08T06:07:39;99648.09;;;9.81;100.00
50933;BME280;36921;49.006;9.292;2023-10-08T06:10:27;99650.44;;;9.84;100.00
50933;BME280;36921;49.006;9.292;2023-10-08T06:15:56;99639.25;;;9.96;100.00
50933;BME280;36921;49.006;9.292;2023-10-08T06:18:26;99643.28;;;10.23;100.00
50933;BME280;36921;49.006;9.292;2023-10-08T06:21:03;99648.41;;;10.41;100.00
50933;BME280;36921;49.006;9.292;2023-10-08T06:23:35;99644.19;;;10.61;100.00
50933;BME280;36921;49.006;9.292;2023-10-08T06:26:02;99634.59;;;10.73;100.00
50933;BME280;36921;49.006;9.292;2023-10-08T06:28:41;99637.88;;;10.84;100.00
50933;BME280;36921;49.006;9.292;2023-10-08T06:31:07;99631.25;;;10.86;100.00
50933;BME280;36921;49.006;9.292;2023-10-08T06:33:40;99628.44;;;10.94;100.00
50933;BME280;36921;49.006;9.292;2023-10-08T06:36:06;99646.50;;;11.17;100.00
50933;BME280;36921;49.006;9.292;2023-10-08T06:38:46;99648.84;;;11.35;100.00
50933;BME280;36921;49.006;9.292;2023-10-08T06:41:15;99643.59;;;11.48;100.00
50933;BME280;36921;49.006;9.292;2023-10-08T06:43:44;99634.97;;;11.59;100.00
50933;BME280;36921;49.006;9.292;2023-10-08T06:46:13;99637.34;;;11.99;100.00
50933;BME280;36921;49.006;9.292;2023-10-08T06:48:39;99652.88;;;12.26;100.00
50933;BME280;36921;49.006;9.292;2023-10-08T06:51:09;99654.09;;;12.45;100.00
50933;BME280;36921;49.006;9.292;2023-10-08T06:53:39;99649.22;;;12.90;100.00
50933;BME280;36921;49.006;9.292;2023-10-08T06:56:04;99619.53;;;13.17;100.00
50933;BME280;36921;49.006;9.292;2023-10-08T06:58:31;99622.16;;;13.32;100.00
50933;BME280;36921;49.006;9.292;2023-10-08T07:00:57;99653.06;;;13.72;100.00
50933;BME280;36921;49.006;9.292;2023-10-08T07:03:24;99634.41;;;14.17;100.00
50933;BME280;36921;49.006;9.292;2023-10-08T07:05:50;99642.16;;;16.87;100.00
50933;BME280;36921;49.006;9.292;2023-10-08T07:08:29;99619.16;;;19.13;100.00
50933;BME280;36921;49.006;9.292;2023-10-08T07:10:56;99623.22;;;20.60;100.00
50933;BME280;36921;49.006;9.292;2023-10-08T07:13:23;99616.06;;;21.71;100.00
50933;BME280;36921;49.006;9.292;2023-10-08T07:15:50;99632.13;;;21.79;97.08
50933;BME280;36921;49.006;9.292;2023-10-08T07:18:16;99623.19;;;22.16;95.84
50933;BME280;36921;49.006;9.292;2023-10-08T07:20:53;99629.66;;;22.26;94.34
50933;BME280;36921;49.006;9.292;2023-10-08T07:23:25;99621.75;;;20.41;100.00
50933;BME280;36921;49.006;9.292;2023-10-08T07:25:54;99627.59;;;19.11;100.00
50933;BME280;36921;49.006;9.292;2023-10-08T07:28:41;99634.19;;;17.84;100.00
50933;BME280;36921;49.006;9.292;2023-10-08T07:31:16;99624.53;;;16.83;100.00
50933;BME280;36921;49.006;9.292;2023-10-08T07:33:47;99615.75;;;15.86;100.00
50933;BME280;36921;49.006;9.292;2023-10-08T07:36:13;99611.66;;;15.56;100.00
50933;BME280;36921;49.006;9.292;2023-10-08T07:38:44;99627.91;;;15.11;100.00
50933;BME280;36921;49.006;9.292;2023-10-08T07:41:13;99635.22;;;15.31;100.00
50933;BME280;36921;49.006;9.292;2023-10-08T07:43:42;99611.28;;;15.40;100.00
50933;BME280;36921;49.006;9.292;2023-10-08T07:46:09;99624.22;;;15.64;100.00
50933;BME280;36921;49.006;9.292;2023-10-08T07:48:35;99617.06;;;17.34;100.00
50933;BME280;36921;49.006;9.292;2023-10-08T07:51:00;99645.66;;;19.83;100.00
50933;BME280;36921;49.006;9.292;2023-10-08T07:53:26;99644.84;;;23.21;100.00
50933;BME280;36921;49.006;9.292;2023-10-08T07:56:05;99661.69;;;25.68;84.44
50933;BME280;36921;49.006;9.292;2023-10-08T07:58:35;99635.34;;;26.70;69.32
50933;BME280;36921;49.006;9.292;2023-10-08T08:01:07;99666.25;;;27.80;62.85
50933;BME280;36921;49.006;9.292;2023-10-08T08:03:39;99673.84;;;29.31;57.50
50933;BME280;36921;49.006;9.292;2023-10-08T08:06:08;99673.38;;;30.62;52.02
50933;BME280;36921;49.006;9.292;2023-10-08T08:08:37;99674.16;;;30.90;50.30
50933;BME280;36921;49.006;9.292;2023-10-08T08:11:07;99683.69;;;30.75;49.59
50933;BME280;36921;49.006;9.292;2023-10-08T08:13:37;99683.16;;;31.09;49.21
50933;BME280;36921;49.006;9.292;2023-10-08T08:16:03;99683.66;;;31.11;48.28
50933;BME280;36921;49.006;9.292;2023-10-08T08:18:45;99685.63;;;30.52;49.06
50933;BME280;36921;49.006;9.292;2023-10-08T08:21:12;99687.69;;;29.49;49.97
50933;BME280;36921;49.006;9.292;2023-10-08T08:23:47;99694.50;;;32.72;46.75
50933;BME280;36921;49.006;9.292;2023-10-08T08:26:24;99705.09;;;33.75;44.61
50933;BME280;36921;49.006;9.292;2023-10-08T08:29:02;99709.06;;;31.46;45.08
50933;BME280;36921;49.006;9.292;2023-10-08T08:31:28;99697.88;;;28.32;52.44
50933;BME280;36921;49.006;9.292;2023-10-08T08:33:58;99694.75;;;26.74;58.79
50933;BME280;36921;49.006;9.292;2023-10-08T08:36:35;99694.72;;;27.13;61.99
50933;BME280;36921;49.006;9.292;2023-10-08T08:39:05;99696.63;;;27.76;58.66
50933;BME280;36921;49.006;9.292;2023-10-08T08:41:37;99689.41;;;28.42;57.94
50933;BME280;36921;49.006;9.292;2023-10-08T08:44:02;99699.31;;;27.86;56.59
50933;BME280;36921;49.006;9.292;2023-10-08T08:46:35;99698.19;;;29.25;53.53
50933;BME280;36921;49.006;9.292;2023-10-08T08:49:05;99702.03;;;29.89;53.95
50933;BME280;36921;49.006;9.292;2023-10-08T08:51:33;99695.13;;;31.86;49.37
50933;BME280;36921;49.006;9.292;2023-10-08T08:54:00;99699.44;;;32.49;46.14
50933;BME280;36921;49.006;9.292;2023-10-08T08:56:33;99668.66;;;33.96;43.71
50933;BME280;36921;49.006;9.292;2023-10-08T08:58:59;99686.59;;;34.63;43.39
50933;BME280;36921;49.006;9.292;2023-10-08T09:01:26;99674.56;;;36.36;41.71
50933;BME280;36921;49.006;9.292;2023-10-08T09:03:58;99670.66;;;37.65;40.13
50933;BME280;36921;49.006;9.292;2023-10-08T09:06:26;99672.81;;;37.72;38.68
50933;BME280;36921;49.006;9.292;2023-10-08T09:08:52;99665.88;;;37.85;37.64
50933;BME280;36921;49.006;9.292;2023-10-08T09:11:20;99692.22;;;37.89;37.24
50933;BME280;36921;49.006;9.292;2023-10-08T09:13:46;99677.69;;;36.71;38.27
50933;BME280;36921;49.006;9.292;2023-10-08T09:16:15;99673.66;;;35.25;39.37
50933;BME280;36921;49.006;9.292;2023-10-08T09:18:44;99681.03;;;33.65;41.04
50933;BME280;36921;49.006;9.292;2023-10-08T09:21:14;99688.81;;;33.42;42.33
50933;BME280;36921;49.006;9.292;2023-10-08T09:23:40;99684.53;;;32.23;44.41
50933;BME280;36921;49.006;9.292;2023-10-08T09:26:09;99666.22;;;31.37;45.88
50933;BME280;36921;49.006;9.292;2023-10-08T09:28:37;99677.69;;;30.82;46.33
50933;BME280;36921;49.006;9.292;2023-10-08T09:31:04;99676.03;;;29.47;48.25
50933;BME280;36921;49.006;9.292;2023-10-08T09:33:30;99676.91;;;28.39;50.66
50933;BME280;36921;49.006;9.292;2023-10-08T09:35:56;99676.94;;;27.96;51.98
50933;BME280;36921;49.006;9.292;2023-10-08T09:38:28;99679.31;;;28.27;52.58
50933;BME280;36921;49.006;9.292;2023-10-08T09:40:55;99687.47;;;28.00;54.29
50933;BME280;36921;49.006;9.292;2023-10-08T09:43:22;99670.66;;;28.29;54.41
50933;BME280;36921;49.006;9.292;2023-10-08T09:45:52;99669.63;;;29.47;52.28
50933;BME280;36921;49.006;9.292;2023-10-08T09:48:20;99654.66;;;30.12;50.31
50933;BME280;36921;49.006;9.292;2023-10-08T09:50:48;99665.25;;;29.87;51.12
50933;BME280;36921;49.006;9.292;2023-10-08T09:53:14;99666.88;;;30.89;50.06
50933;BME280;36921;49.006;9.292;2023-10-08T09:56:02;99693.00;;;30.20;51.05
50933;BME280;36921;49.006;9.292;2023-10-08T09:58:32;99682.09;;;30.24;50.25
50933;BME280;36921;49.006;9.292;2023-10-08T10:00:58;99684.03;;;30.23;50.05
50933;BME280;36921;49.006;9.292;2023-10-08T10:03:25;99693.41;;;31.22;48.66
50933;BME280;36921;49.006;9.292;2023-10-08T10:05:51;99688.31;;;32.09;48.00
50933;BME280;36921;49.006;9.292;2023-10-08T10:08:17;99685.09;;;32.86;45.73
50933;BME280;36921;49.006;9.292;2023-10-08T10:10:45;99687.09;;;33.03;46.03
50933;BME280;36921;49.006;9.292;2023-10-08T10:13:13;99695.63;;;33.24;44.27
50933;BME280;36921;49.006;9.292;2023-10-08T10:15:39;99696.31;;;32.68;45.11
50933;BME280;36921;49.006;9.292;2023-10-08T10:18:13;99684.69;;;35.42;42.83
50933;BME280;36921;49.006;9.292;2023-10-08T10:20:44;99686.75;;;35.00;41.60
50933;BME280;36921;49.006;9.292;2023-10-08T10:23:36;99682.72;;;34.46;41.94
50933;BME280;36921;49.006;9.292;2023-10-08T10:31:38;99693.75;;;34.52;41.38
50933;BME280;36921;49.006;9.292;2023-10-08T10:34:11;99696.19;;;34.02;42.22
50933;BME280;36921;49.006;9.292;2023-10-08T10:36:38;99687.66;;;34.50;41.99
50933;BME280;36921;49.006;9.292;2023-10-08T10:39:07;99684.84;;;33.90;42.00
50933;BME280;36921;49.006;9.292;2023-10-08T10:41:44;99682.63;;;34.64;42.02
50933;BME280;36921;49.006;9.292;2023-10-08T10:44:11;99669.06;;;35.78;40.13
50933;BME280;36921;49.006;9.292;2023-10-08T10:46:41;99685.44;;;38.61;38.60
50933;BME280;36921;49.006;9.292;2023-10-08T10:49:08;99685.41;;;39.81;36.46
50933;BME280;36921;49.006;9.292;2023-10-08T10:51:48;99696.34;;;41.20;34.95
50933;BME280;36921;49.006;9.292;2023-10-08T10:54:18;99688.50;;;41.91;33.41
50933;BME280;36921;49.006;9.292;2023-10-08T10:56:49;99654.31;;;43.30;32.90
50933;BME280;36921;49.006;9.292;2023-10-08T10:59:29;99664.38;;;42.96;31.64
50933;BME280;36921;49.006;9.292;2023-10-08T11:02:06;99666.97;;;38.48;34.51
50933;BME280;36921;49.006;9.292;2023-10-08T11:04:46;99667.44;;;37.51;36.15
50933;BME280;36921;49.006;9.292;2023-10-08T11:07:21;99666.28;;;37.68;36.20
50933;BME280;36921;49.006;9.292;2023-10-08T11:09:48;99650.53;;;35.77;37.71
50933;BME280;36921;49.006;9.292;2023-10-08T11:12:16;99647.63;;;36.51;37.16
50933;BME280;36921;49.006;9.292;2023-10-08T11:14:48;99652.88;;;34.63;38.54
50933;BME280;36921;49.006;9.292;2023-10-08T11:17:16;99650.91;;;33.36;41.06
50933;BME280;36921;49.006;9.292;2023-10-08T11:19:43;99647.84;;;32.50;40.52
50933;BME280;36921;49.006;9.292;2023-10-08T11:22:11;99645.31;;;28.68;45.63
50933;BME280;36921;49.006;9.292;2023-10-08T11:24:42;99653.03;;;29.83;44.89
50933;BME280;36921;49.006;9.292;2023-10-08T11:27:10;99660.84;;;30.23;43.04
50933;BME280;36921;49.006;9.292;2023-10-08T11:29:47;99640.13;;;30.51;43.48
50933;BME280;36921;49.006;9.292;2023-10-08T11:32:14;99645.34;;;32.23;42.47
50933;BME280;36921;49.006;9.292;2023-10-08T11:34:47;99637.38;;;31.59;42.02
50933;BME280;36921;49.006;9.292;2023-10-08T11:37:26;99636.91;;;32.14;42.03
50933;BME280;36921;49.006;9.292;2023-10-08T11:39:51;99634.81;;;32.63;42.89
50933;BME280;36921;49.006;9.292;2023-10-08T11:42:18;99638.91;;;33.18;42.91
50933;BME280;36921;49.006;9.292;2023-10-08T11:45:11;99639.41;;;34.26;42.17
50933;BME280;36921;49.006;9.292;2023-10-08T11:48:05;99630.34;;;36.52;39.58
50933;BME280;36921;49.006;9.292;2023-10-08T11:50:37;99613.25;;;36.73;38.49
50933;BME280;36921;49.006;9.292;2023-10-08T11:53:04;99623.56;;;38.40;37.14
50933;BME280;36921;49.006;9.292;2023-10-08T11:55:32;99610.75;;;39.70;35.73
50933;BME280;36921;49.006;9.292;2023-10-08T11:58:03;99596.19;;;39.03;34.90
50933;BME280;36921;49.006;9.292;2023-10-08T12:00:37;99594.41;;;40.73;34.11
50933;BME280;36921;49.006;9.292;2023-10-08T12:03:09;99593.78;;;41.28;33.49
50933;BME280;36921;49.006;9.292;2023-10-08T12:05:36;99593.09;;;38.69;34.21
50933;BME280;36921;49.006;9.292;2023-10-08T12:08:01;99594.94;;;38.42;34.62
50933;BME280;36921;49.006;9.292;2023-10-08T12:10:27;99579.41;;;34.98;36.05
50933;BME280;36921;49.006;9.292;2023-10-08T12:12:56;99576.66;;;36.89;36.70
50933;BME280;36921;49.006;9.292;2023-10-08T12:15:25;99579.97;;;36.63;35.26
50933;BME280;36921;49.006;9.292;2023-10-08T12:17:59;99586.06;;;36.25;35.27
50933;BME280;36921;49.006;9.292;2023-10-08T12:20:37;99582.66;;;36.88;34.52
50933;BME280;36921;49.006;9.292;2023-10-08T12:23:06;99583.19;;;37.53;35.79
50933;BME280;36921;49.006;9.292;2023-10-08T12:25:38;99588.59;;;38.87;33.64
50933;BME280;36921;49.006;9.292;2023-10-08T12:28:04;99588.88;;;39.44;33.11
50933;BME280;36921;49.006;9.292;2023-10-08T12:30:30;99588.31;;;38.92;33.09
50933;BME280;36921;49.006;9.292;2023-10-08T12:32:59;99592.97;;;39.27;32.96
50933;BME280;36921;49.006;9.292;2023-10-08T12:35:26;99594.69;;;38.47;32.93
50933;BME280;36921;49.006;9.292;2023-10-08T12:37:52;99595.44;;;39.06;33.84
50933;BME280;36921;49.006;9.292;2023-10-08T12:40:19;99600.97;;;40.81;33.33
50933;BME280;36921;49.006;9.292;2023-10-08T12:42:51;99596.25;;;40.28;33.20
50933;BME280;36921;49.006;9.292;2023-10-08T12:45:16;99595.81;;;40.26;33.73
50933;BME280;36921;49.006;9.292;2023-10-08T12:50:15;99602.63;;;40.52;33.27
50933;BME280;36921;49.006;9.292;2023-10-08T12:52:43;99610.38;;;40.89;32.51
50933;BME280;36921;49.006;9.292;2023-10-08T12:55:21;99603.50;;;40.56;31.83
50933;BME280;36921;49.006;9.292;2023-10-08T12:57:52;99599.00;;;40.21;32.85
50933;BME280;36921;49.006;9.292;2023-10-08T13:00:24;99597.22;;;40.40;32.64
50933;BME280;36921;49.006;9.292;2023-10-08T13:02:51;99593.25;;;39.64;32.66
50933;BME280;36921;49.006;9.292;2023-10-08T13:05:22;99596.66;;;40.61;32.82
50933;BME280;36921;49.006;9.292;2023-10-08T13:07:56;99603.09;;;39.97;33.17
50933;BME280;36921;49.006;9.292;2023-10-08T13:10:25;99599.25;;;39.36;33.58
50933;BME280;36921;49.006;9.292;2023-10-08T13:12:51;99588.69;;;40.09;33.41
50933;BME280;36921;49.006;9.292;2023-10-08T13:15:17;99587.22;;;39.93;33.19
50933;BME280;36921;49.006;9.292;2023-10-08T13:17:43;99593.03;;;40.03;33.29
50933;BME280;36921;49.006;9.292;2023-10-08T13:20:13;99588.28;;;40.38;33.10
50933;BME280;36921;49.006;9.292;2023-10-08T13:22:40;99591.28;;;38.80;34.05
50933;BME280;36921;49.006;9.292;2023-10-08T13:25:06;99578.63;;;39.36;34.19
50933;BME280;36921;49.006;9.292;2023-10-08T13:27:32;99569.78;;;38.75;35.50
50933;BME280;36921;49.006;9.292;2023-10-08T13:29:57;99582.75;;;39.19;34.99